Pontiac, Missouri
Current Conditions -  °F | °C
As of 2:07 AM on Thursday 18 Dec 2014 (Local Time) from KBPK Reporting Station
Overcast Overcast  
Wind Chill: 28°   Ceiling: 4000
Heat Index: 33°   Visibility: 8mi
Dew Point: 33°   Wind: 6mph
Humidity: 100%   Direction: 140°SE
Pressure: 30.21"   Gusts: NA
Location:  36.52°N, 92.6°W
Report Text: KBPK 180807Z AUTO 14005KT 8SM SCT007 OVC040 01/01 A3021 RMK AO2 T00060006 $
Loading
Personal Weather Stations






























Interactive Weather Map New forecast layout! Learn more

10-Day Weather Forecast

Advertisements
Track Severe Weather on mobile